createdAt,value
2023-05-20T00:00:49.326Z,2.60
2023-05-20T00:03:17.580Z,2.67
2023-05-20T00:05:45.386Z,3.53
2023-05-20T00:08:14.561Z,2.63
2023-05-20T00:10:41.951Z,2.65
2023-05-20T00:13:09.478Z,2.72
2023-05-20T00:15:37.112Z,3.08
2023-05-20T00:18:04.845Z,3.10
2023-05-20T00:20:32.270Z,3.00
2023-05-20T00:22:59.748Z,3.38
2023-05-20T00:25:27.574Z,2.65
2023-05-20T00:27:54.974Z,2.83
2023-05-20T00:30:22.446Z,2.85
2023-05-20T00:32:50.054Z,2.75
2023-05-20T00:35:17.603Z,2.83
2023-05-20T00:37:44.997Z,3.45
2023-05-20T00:40:14.882Z,3.28
2023-05-20T00:42:42.936Z,3.00
2023-05-20T00:45:10.594Z,3.40
2023-05-20T00:47:38.035Z,2.83
2023-05-20T00:50:05.989Z,3.25
2023-05-20T00:52:33.869Z,3.28
2023-05-20T00:55:01.783Z,3.50
2023-05-20T00:57:29.416Z,3.90
2023-05-20T00:59:57.090Z,3.10
2023-05-20T01:02:25.048Z,3.70
2023-05-20T01:04:52.989Z,3.00
2023-05-20T01:07:20.461Z,3.30
2023-05-20T01:09:48.061Z,3.72
2023-05-20T01:12:32.698Z,4.82
2023-05-20T01:15:04.073Z,4.63
2023-05-20T01:17:33.387Z,3.88
2023-05-20T01:20:01.792Z,4.68
2023-05-20T01:22:29.595Z,4.55
2023-05-20T01:24:57.346Z,3.92
2023-05-20T01:27:25.081Z,4.20
2023-05-20T01:29:53.067Z,3.75
2023-05-20T01:32:22.204Z,4.28
2023-05-20T01:34:50.016Z,4.30
2023-05-20T01:37:18.147Z,4.18
2023-05-20T01:39:46.637Z,3.65
2023-05-20T01:42:15.263Z,4.88
2023-05-20T01:44:42.743Z,5.35
2023-05-20T01:47:10.357Z,5.72
2023-05-20T01:49:38.027Z,5.10
2023-05-20T01:52:06.025Z,5.30
2023-05-20T01:54:33.424Z,6.25
2023-05-20T01:57:01.676Z,5.78
2023-05-20T01:59:29.042Z,5.40
2023-05-20T02:01:56.668Z,5.00
2023-05-20T02:04:24.092Z,6.03
2023-05-20T02:06:51.476Z,6.47
2023-05-20T02:09:19.564Z,5.47
2023-05-20T02:11:46.966Z,6.30
2023-05-20T02:14:14.385Z,6.28
2023-05-20T02:16:42.154Z,7.82
2023-05-20T02:19:13.182Z,8.43
2023-05-20T02:21:41.281Z,9.32
2023-05-20T02:24:08.918Z,8.35
2023-05-20T02:26:36.514Z,8.05
2023-05-20T02:29:03.937Z,7.75
2023-05-20T02:31:31.718Z,8.63
2023-05-20T02:33:59.207Z,8.27
2023-05-20T02:36:28.112Z,7.82
2023-05-20T02:38:57.046Z,8.75
2023-05-20T02:41:24.510Z,7.97
2023-05-20T02:43:51.889Z,9.27
2023-05-20T02:46:20.037Z,8.13
2023-05-20T02:48:47.513Z,7.47
2023-05-20T02:51:14.996Z,7.18
2023-05-20T02:53:42.402Z,7.90
2023-05-20T02:56:09.814Z,7.35
2023-05-20T02:58:37.511Z,7.45
2023-05-20T03:01:04.901Z,7.68
2023-05-20T03:03:32.397Z,6.72
2023-05-20T03:06:00.041Z,5.30
2023-05-20T03:08:27.393Z,6.50
2023-05-20T03:10:54.786Z,6.55
2023-05-20T03:13:22.128Z,6.22
2023-05-20T03:15:49.541Z,5.95
2023-05-20T03:18:16.959Z,6.65
2023-05-20T03:20:44.341Z,6.30
2023-05-20T03:23:12.011Z,5.65
2023-05-20T03:25:39.818Z,6.30
2023-05-20T03:28:07.264Z,6.00
2023-05-20T03:30:34.629Z,6.35
2023-05-20T03:33:03.380Z,5.85
2023-05-20T03:35:30.979Z,5.90
2023-05-20T03:37:59.837Z,5.18
2023-05-20T03:40:27.189Z,6.25
2023-05-20T03:42:54.697Z,7.28
2023-05-20T03:45:22.277Z,6.85
2023-05-20T03:47:49.714Z,6.28
2023-05-20T03:50:17.238Z,7.10
2023-05-20T03:52:45.224Z,7.45
2023-05-20T03:55:12.934Z,7.78
2023-05-20T03:57:40.434Z,6.78
2023-05-20T04:00:14.619Z,6.70
2023-05-20T04:02:42.049Z,6.47
2023-05-20T04:05:10.554Z,6.25
2023-05-20T04:07:38.196Z,6.80
2023-05-20T04:10:06.399Z,6.47
2023-05-20T04:12:34.174Z,6.65
2023-05-20T04:15:01.843Z,6.10
2023-05-20T04:17:33.033Z,7.10
2023-05-20T04:20:00.615Z,7.43
2023-05-20T04:22:28.289Z,8.15
2023-05-20T04:24:56.705Z,7.85
2023-05-20T04:27:24.634Z,8.50
2023-05-20T04:29:52.699Z,8.38
2023-05-20T04:32:20.565Z,8.13
2023-05-20T04:34:48.919Z,8.27
2023-05-20T04:37:16.317Z,8.70
2023-05-20T04:39:43.881Z,9.25
2023-05-20T04:42:11.330Z,9.30
2023-05-20T04:44:41.730Z,8.45
2023-05-20T04:47:09.676Z,8.75
2023-05-20T04:49:37.085Z,8.38
2023-05-20T04:52:04.974Z,8.23
2023-05-20T04:54:33.508Z,8.57
2023-05-20T04:57:00.900Z,7.72
2023-05-20T04:59:28.279Z,9.55
2023-05-20T05:01:55.979Z,8.52
2023-05-20T05:04:23.594Z,8.77
2023-05-20T05:06:51.017Z,8.30
2023-05-20T05:09:18.594Z,8.98
2023-05-20T05:11:45.953Z,9.50
2023-05-20T05:14:13.283Z,9.60
2023-05-20T05:16:40.706Z,9.43
2023-05-20T05:19:08.979Z,9.80
2023-05-20T05:21:36.492Z,9.57
2023-05-20T05:24:03.898Z,9.25
2023-05-20T05:26:31.353Z,8.90
2023-05-20T05:28:58.736Z,8.95
2023-05-20T05:31:26.223Z,9.63
2023-05-20T05:33:53.647Z,9.73
2023-05-20T05:36:21.012Z,9.50
2023-05-20T05:38:48.375Z,10.65
2023-05-20T05:41:16.332Z,9.05
2023-05-20T05:43:43.770Z,9.10
2023-05-20T05:46:11.166Z,9.68
2023-05-20T05:48:38.592Z,10.52
2023-05-20T05:51:06.101Z,10.48
2023-05-20T05:53:33.680Z,9.45
2023-05-20T05:56:01.296Z,10.82
2023-05-20T05:58:28.741Z,10.70
2023-05-20T06:00:56.143Z,10.13
2023-05-20T06:03:24.158Z,11.20
2023-05-20T06:05:51.627Z,11.43
2023-05-20T06:08:18.967Z,10.88
2023-05-20T06:10:52.354Z,10.48
2023-05-20T06:13:19.743Z,10.68
2023-05-20T06:15:47.146Z,10.20
2023-05-20T06:18:14.525Z,8.68
2023-05-20T06:20:41.967Z,10.02
2023-05-20T06:23:09.371Z,9.82
2023-05-20T06:25:37.150Z,9.45
2023-05-20T06:28:04.614Z,9.35
2023-05-20T06:30:32.033Z,10.82
2023-05-20T06:32:59.474Z,9.90
2023-05-20T06:35:26.848Z,9.55
2023-05-20T06:37:55.577Z,9.10
2023-05-20T06:40:23.650Z,9.55
2023-05-20T06:42:51.016Z,8.63
2023-05-20T06:45:18.420Z,9.68
2023-05-20T06:47:46.002Z,9.88
2023-05-20T06:50:13.493Z,10.38
2023-05-20T06:52:40.990Z,9.88
2023-05-20T06:55:08.505Z,9.52
2023-05-20T06:57:36.103Z,11.75
2023-05-20T07:00:05.262Z,10.07
2023-05-20T07:02:34.434Z,10.43
2023-05-20T07:05:01.878Z,9.50
2023-05-20T07:07:29.279Z,9.90
2023-05-20T07:09:56.672Z,8.90
2023-05-20T07:12:24.380Z,11.45
2023-05-20T07:14:51.743Z,10.68
2023-05-20T07:17:19.146Z,9.80
2023-05-20T07:19:46.485Z,9.63
2023-05-20T07:22:13.870Z,7.60
2023-05-20T07:24:41.280Z,9.00
2023-05-20T07:27:08.871Z,7.10
2023-05-20T07:29:36.767Z,10.30
2023-05-20T07:32:05.758Z,8.55
2023-05-20T07:34:33.194Z,9.23
2023-05-20T07:37:00.559Z,8.18
2023-05-20T07:39:28.099Z,10.45
2023-05-20T07:41:55.436Z,10.05
2023-05-20T07:44:23.519Z,10.77
2023-05-20T07:46:50.966Z,9.65
2023-05-20T07:49:18.383Z,9.00
2023-05-20T07:51:47.143Z,6.72
2023-05-20T07:54:15.523Z,10.82
2023-05-20T07:56:42.904Z,9.95
2023-05-20T07:59:10.406Z,9.52
2023-05-20T08:01:38.179Z,7.90
2023-05-20T08:04:05.866Z,9.65
2023-05-20T08:06:33.346Z,9.55
2023-05-20T08:09:00.725Z,10.07
2023-05-20T08:11:28.335Z,9.82
2023-05-20T08:13:55.729Z,9.05
2023-05-20T08:16:23.227Z,7.95
2023-05-20T08:18:50.827Z,9.32
2023-05-20T08:21:18.225Z,9.60
2023-05-20T08:23:45.672Z,9.50
2023-05-20T08:26:13.055Z,9.15
2023-05-20T08:28:40.503Z,8.45
2023-05-20T08:31:08.140Z,8.52
2023-05-20T08:33:35.545Z,9.32
2023-05-20T08:36:02.948Z,6.68
2023-05-20T08:38:30.363Z,9.35
2023-05-20T08:40:58.451Z,8.60
2023-05-20T08:43:26.287Z,8.45
2023-05-20T08:45:53.788Z,9.25
2023-05-20T08:48:23.384Z,8.85
2023-05-20T08:50:54.458Z,8.95
2023-05-20T08:53:23.300Z,8.85
2023-05-20T08:56:04.124Z,6.72
2023-05-20T08:58:31.944Z,7.65
2023-05-20T09:00:59.399Z,8.10
2023-05-20T09:03:27.073Z,9.15
2023-05-20T09:05:54.878Z,10.00
2023-05-20T09:08:29.195Z,8.88
2023-05-20T09:10:56.574Z,8.83
2023-05-20T09:13:24.882Z,9.73
2023-05-20T09:15:52.408Z,8.77
2023-05-20T09:18:19.796Z,9.68
2023-05-20T09:20:48.400Z,9.57
2023-05-20T09:23:15.860Z,9.05
2023-05-20T09:25:43.258Z,9.73
2023-05-20T09:28:12.040Z,8.20
2023-05-20T09:30:39.465Z,10.18
2023-05-20T09:33:09.564Z,10.32
2023-05-20T09:35:38.085Z,8.65
2023-05-20T09:38:06.699Z,9.60
2023-05-20T09:40:34.148Z,10.85
2023-05-20T09:43:03.472Z,9.20
2023-05-20T09:45:31.056Z,8.25
2023-05-20T09:47:58.493Z,10.00
2023-05-20T09:50:26.329Z,7.43
2023-05-20T09:52:54.365Z,8.63
2023-05-20T09:55:23.457Z,8.65
2023-05-20T09:57:50.937Z,8.82
2023-05-20T10:00:18.647Z,8.38
2023-05-20T10:02:47.694Z,8.98
2023-05-20T10:05:18.247Z,8.35
2023-05-20T10:08:04.076Z,7.65
2023-05-20T10:10:31.754Z,8.75
2023-05-20T10:13:14.591Z,8.45
2023-05-20T10:15:49.282Z,9.00
2023-05-20T10:18:28.984Z,8.98
2023-05-20T10:20:56.397Z,8.02
2023-05-20T10:23:24.656Z,8.07
2023-05-20T10:25:53.520Z,7.65
2023-05-20T10:28:36.240Z,7.75
2023-05-20T10:31:04.159Z,8.38
2023-05-20T10:33:31.669Z,8.18
2023-05-20T10:36:00.011Z,7.82
2023-05-20T10:38:27.406Z,8.60
2023-05-20T10:40:54.812Z,8.73
2023-05-20T10:43:29.307Z,7.35
2023-05-20T10:45:57.838Z,7.07
2023-05-20T10:48:25.307Z,7.93
2023-05-20T10:50:56.694Z,7.55
2023-05-20T10:53:33.578Z,7.45
2023-05-20T10:56:02.043Z,8.23
2023-05-20T10:58:37.704Z,8.35
2023-05-20T11:01:05.131Z,7.43
2023-05-20T11:03:32.841Z,7.22
2023-05-20T11:06:00.265Z,8.80
2023-05-20T11:08:31.739Z,7.32
2023-05-20T11:10:59.170Z,8.23
2023-05-20T11:13:27.189Z,8.15
2023-05-20T11:15:55.691Z,8.50
2023-05-20T11:18:23.124Z,7.07
2023-05-20T11:20:50.559Z,8.38
2023-05-20T11:23:18.430Z,9.85
2023-05-20T11:25:46.032Z,8.93
2023-05-20T11:28:14.660Z,10.48
2023-05-20T11:30:43.526Z,9.77
2023-05-20T11:33:13.185Z,10.30
2023-05-20T11:35:46.068Z,9.68
2023-05-20T11:38:13.616Z,9.70
2023-05-20T11:40:50.736Z,9.18
2023-05-20T11:43:19.000Z,9.73
2023-05-20T11:45:47.380Z,7.50
2023-05-20T11:48:15.992Z,8.98
2023-05-20T11:50:44.166Z,9.90
2023-05-20T11:53:12.401Z,9.05
2023-05-20T11:56:06.251Z,9.75
2023-05-20T11:58:33.664Z,9.25
2023-05-20T12:01:13.541Z,9.90
2023-05-20T12:03:48.357Z,10.27
2023-05-20T12:06:16.044Z,9.60
2023-05-20T12:08:43.482Z,9.55
2023-05-20T12:11:11.010Z,9.65
2023-05-20T12:13:38.749Z,9.10
2023-05-20T12:16:06.471Z,9.55
2023-05-20T12:18:34.130Z,9.32
2023-05-20T12:21:02.002Z,9.65
2023-05-20T12:23:31.000Z,10.43
2023-05-20T12:25:58.360Z,10.63
2023-05-20T12:28:25.840Z,10.35
2023-05-20T12:30:53.208Z,10.07
2023-05-20T12:33:20.969Z,9.52
2023-05-20T12:35:48.408Z,10.35
2023-05-20T12:38:15.845Z,9.55
2023-05-20T12:40:43.352Z,10.82
2023-05-20T12:43:10.879Z,11.43
2023-05-20T12:45:38.346Z,10.50
2023-05-20T12:48:08.101Z,11.25
2023-05-20T12:50:35.894Z,10.40
2023-05-20T12:53:03.412Z,10.52
2023-05-20T12:55:30.837Z,11.55
2023-05-20T12:57:58.229Z,11.90
2023-05-20T13:00:25.594Z,10.18
2023-05-20T13:02:53.202Z,10.80
2023-05-20T13:05:21.262Z,10.32
2023-05-20T13:07:49.277Z,9.93
2023-05-20T13:10:17.487Z,10.80
2023-05-20T13:12:47.733Z,11.85
2023-05-20T13:15:15.458Z,11.07
2023-05-20T13:17:42.963Z,11.45
2023-05-20T13:20:11.274Z,13.13
2023-05-20T13:22:38.652Z,12.20
2023-05-20T13:25:06.881Z,12.23
2023-05-20T13:27:34.371Z,11.25
2023-05-20T13:30:02.192Z,11.52
2023-05-20T13:32:29.720Z,10.95
2023-05-20T13:34:57.370Z,12.27
2023-05-20T13:37:24.856Z,12.13
2023-05-20T13:39:52.410Z,11.73
2023-05-20T13:42:19.823Z,11.63
2023-05-20T13:44:47.641Z,11.32
2023-05-20T13:47:15.051Z,12.48
2023-05-20T13:49:42.487Z,11.38
2023-05-20T13:52:09.871Z,9.65
2023-05-20T13:54:37.440Z,12.25
2023-05-20T13:57:08.211Z,12.32
2023-05-20T13:59:35.911Z,11.98
2023-05-20T14:02:03.547Z,12.30
2023-05-20T14:04:40.263Z,10.93
2023-05-20T14:07:09.866Z,12.30
2023-05-20T14:09:37.489Z,10.82
2023-05-20T14:12:05.280Z,10.93
2023-05-20T14:14:32.869Z,11.63
2023-05-20T14:17:00.252Z,13.60
2023-05-20T14:19:27.964Z,11.98
2023-05-20T14:21:56.377Z,11.75
2023-05-20T14:24:23.994Z,12.18
2023-05-20T14:26:51.483Z,12.73
2023-05-20T14:29:18.888Z,11.55
2023-05-20T14:31:46.461Z,11.63
2023-05-20T14:34:13.980Z,11.65
2023-05-20T14:36:41.476Z,11.90
2023-05-20T14:39:09.890Z,12.15
2023-05-20T14:41:37.544Z,11.10
2023-05-20T14:44:05.016Z,13.00
2023-05-20T14:46:32.778Z,12.52
2023-05-20T14:49:01.064Z,11.68
2023-05-20T14:51:28.436Z,11.38
2023-05-20T14:53:55.881Z,11.80
2023-05-20T14:56:23.363Z,12.63
2023-05-20T14:58:50.732Z,11.68
2023-05-20T15:01:18.209Z,12.45
2023-05-20T15:03:45.710Z,12.23
2023-05-20T15:06:13.084Z,8.98
2023-05-20T15:08:40.462Z,11.63
2023-05-20T15:11:07.848Z,12.18
2023-05-20T15:13:35.259Z,11.32
2023-05-20T15:16:02.689Z,10.13
2023-05-20T15:18:30.132Z,11.75
2023-05-20T15:20:57.650Z,10.35
2023-05-20T15:23:25.049Z,9.95
2023-05-20T15:25:52.431Z,10.50
2023-05-20T15:28:19.958Z,11.02
2023-05-20T15:30:47.505Z,11.77
2023-05-20T15:33:15.006Z,10.77
2023-05-20T15:35:42.468Z,10.63
2023-05-20T15:38:09.835Z,9.90
2023-05-20T15:40:37.680Z,10.60
2023-05-20T15:43:05.074Z,10.27
2023-05-20T15:45:32.726Z,10.45
2023-05-20T15:48:00.427Z,9.63
2023-05-20T15:50:28.537Z,9.77
2023-05-20T15:52:56.024Z,8.95
2023-05-20T15:55:23.568Z,9.70
2023-05-20T15:57:51.569Z,7.82
2023-05-20T16:00:22.695Z,9.63
2023-05-20T16:02:50.208Z,9.90
2023-05-20T16:05:18.092Z,8.93
2023-05-20T16:07:46.918Z,9.98
2023-05-20T16:10:14.330Z,8.60
2023-05-20T16:12:41.774Z,9.38
2023-05-20T16:15:10.265Z,9.32
2023-05-20T16:17:38.269Z,8.77
2023-05-20T16:20:07.260Z,8.50
2023-05-20T16:22:35.225Z,9.38
2023-05-20T16:25:03.190Z,8.27
2023-05-20T16:27:30.665Z,8.27
2023-05-20T16:29:58.132Z,8.38
2023-05-20T16:32:25.739Z,8.15
2023-05-20T16:34:54.817Z,9.23
2023-05-20T16:37:22.242Z,8.95
2023-05-20T16:39:49.668Z,8.23
2023-05-20T16:42:17.050Z,8.80
2023-05-20T16:44:44.453Z,8.45
2023-05-20T16:47:11.859Z,7.53
2023-05-20T16:49:39.258Z,8.65
2023-05-20T16:52:06.902Z,9.18
2023-05-20T16:54:36.531Z,8.05
2023-05-20T16:57:04.498Z,7.35
2023-05-20T16:59:35.032Z,7.85
2023-05-20T17:02:02.529Z,8.50
2023-05-20T17:04:30.057Z,8.27
2023-05-20T17:06:57.597Z,7.88
2023-05-20T17:09:24.960Z,8.50
2023-05-20T17:11:53.165Z,8.15
2023-05-20T17:14:20.629Z,7.97
2023-05-20T17:16:48.053Z,7.53
2023-05-20T17:19:16.436Z,7.40
2023-05-20T17:21:44.477Z,7.63
2023-05-20T17:24:11.926Z,8.05
2023-05-20T17:26:39.470Z,7.47
2023-05-20T17:29:06.981Z,7.57
2023-05-20T17:31:34.405Z,7.30
2023-05-20T17:34:02.041Z,6.40
2023-05-20T17:36:29.586Z,7.63
2023-05-20T17:38:57.144Z,7.80
2023-05-20T17:41:24.561Z,7.35
2023-05-20T17:43:51.960Z,7.95
2023-05-20T17:46:19.393Z,8.75
2023-05-20T17:48:46.924Z,7.65
2023-05-20T17:51:14.293Z,8.07
2023-05-20T17:53:41.687Z,7.55
2023-05-20T17:56:09.156Z,7.88
2023-05-20T17:58:36.533Z,7.00
2023-05-20T18:01:03.958Z,7.50
2023-05-20T18:03:31.753Z,7.75
2023-05-20T18:05:59.257Z,7.57
2023-05-20T18:08:26.678Z,7.72
2023-05-20T18:10:54.231Z,7.50
2023-05-20T18:13:21.844Z,7.53
2023-05-20T18:15:49.304Z,7.75
2023-05-20T18:18:16.724Z,8.48
2023-05-20T18:20:44.172Z,7.80
2023-05-20T18:23:11.680Z,8.35
2023-05-20T18:25:41.097Z,7.68
2023-05-20T18:28:10.997Z,8.25
2023-05-20T18:30:38.382Z,8.20
2023-05-20T18:33:06.398Z,8.85
2023-05-20T18:35:33.901Z,7.35
2023-05-20T18:38:01.269Z,7.95
2023-05-20T18:40:29.292Z,8.13
2023-05-20T18:42:56.699Z,8.18
2023-05-20T18:45:25.077Z,8.00
2023-05-20T18:47:54.984Z,8.98
2023-05-20T18:50:22.543Z,7.18
2023-05-20T18:52:49.951Z,8.80
2023-05-20T18:55:17.395Z,8.43
2023-05-20T18:57:44.919Z,7.85
2023-05-20T19:00:12.737Z,7.97
2023-05-20T19:02:40.946Z,7.97
2023-05-20T19:05:12.114Z,8.02
2023-05-20T19:07:40.024Z,8.77
2023-05-20T19:10:07.971Z,8.23
2023-05-20T19:12:35.304Z,7.95
2023-05-20T19:15:02.768Z,7.28
2023-05-20T19:17:30.221Z,7.72
2023-05-20T19:19:57.658Z,7.28
2023-05-20T19:22:25.129Z,8.77
2023-05-20T19:24:52.554Z,7.82
2023-05-20T19:27:19.947Z,8.32
2023-05-20T19:29:47.326Z,7.93
2023-05-20T19:32:14.686Z,7.72
2023-05-20T19:34:42.256Z,8.32
2023-05-20T19:37:09.621Z,8.30
2023-05-20T19:39:37.142Z,8.50
2023-05-20T19:42:04.638Z,8.00
2023-05-20T19:44:32.040Z,8.45
2023-05-20T19:46:59.462Z,8.98
2023-05-20T19:49:27.662Z,8.50
2023-05-20T19:51:55.059Z,8.70
2023-05-20T19:54:22.490Z,7.72
2023-05-20T19:56:49.885Z,7.88
2023-05-20T19:59:17.269Z,8.10
2023-05-20T20:01:45.173Z,8.75
2023-05-20T20:04:13.441Z,7.97
2023-05-20T20:06:40.866Z,8.52
2023-05-20T20:09:08.710Z,8.90
2023-05-20T20:11:36.232Z,8.88
2023-05-20T20:14:03.656Z,7.22
2023-05-20T20:16:31.162Z,8.32
2023-05-20T20:18:58.666Z,7.75
2023-05-20T20:21:26.111Z,8.55
2023-05-20T20:23:53.654Z,8.00
2023-05-20T20:26:26.066Z,7.85
2023-05-20T20:28:53.637Z,8.82
2023-05-20T20:31:21.238Z,8.60
2023-05-20T20:33:48.719Z,8.45
2023-05-20T20:36:16.970Z,8.82
2023-05-20T20:38:46.920Z,8.68
2023-05-20T20:41:16.407Z,8.80
2023-05-20T20:43:46.895Z,8.27
2023-05-20T20:46:15.129Z,8.27
2023-05-20T20:48:48.313Z,8.93
2023-05-20T20:51:16.724Z,8.30
2023-05-20T20:53:47.158Z,8.23
2023-05-20T20:56:14.578Z,8.43
2023-05-20T20:58:42.006Z,9.07
2023-05-20T21:01:11.649Z,9.40
2023-05-20T21:03:40.610Z,8.75
2023-05-20T21:06:08.624Z,7.90
2023-05-20T21:08:36.052Z,8.85
2023-05-20T21:11:03.441Z,8.77
2023-05-20T21:13:31.446Z,9.05
2023-05-20T21:15:58.885Z,9.38
2023-05-20T21:18:26.349Z,8.35
2023-05-20T21:20:54.611Z,9.15
2023-05-20T21:23:22.735Z,9.45
2023-05-20T21:25:50.460Z,9.27
2023-05-20T21:28:17.954Z,9.60
2023-05-20T21:30:45.428Z,9.85
2023-05-20T21:33:12.884Z,8.35
2023-05-20T21:35:40.243Z,9.70
2023-05-20T21:38:07.671Z,8.88
2023-05-20T21:40:35.065Z,9.90
2023-05-20T21:43:02.488Z,10.10
2023-05-20T21:45:29.838Z,9.90
2023-05-20T21:47:57.328Z,9.73
2023-05-20T21:50:24.845Z,10.73
2023-05-20T21:52:52.991Z,9.95
2023-05-20T21:55:23.734Z,9.63
2023-05-20T21:57:51.807Z,9.95
2023-05-20T22:00:19.440Z,8.90
2023-05-20T22:02:46.961Z,10.32
2023-05-20T22:05:14.838Z,9.95
2023-05-20T22:07:43.378Z,9.85
2023-05-20T22:10:12.830Z,9.82
2023-05-20T22:12:42.571Z,9.38
2023-05-20T22:15:10.145Z,10.90
2023-05-20T22:17:38.299Z,10.85
2023-05-20T22:20:10.664Z,9.82
2023-05-20T22:22:39.793Z,10.38
2023-05-20T22:25:07.661Z,10.35
2023-05-20T22:27:35.234Z,10.27
2023-05-20T22:30:02.764Z,10.55
2023-05-20T22:32:30.197Z,10.27
2023-05-20T22:34:58.497Z,9.52
2023-05-20T22:37:29.011Z,11.35
2023-05-20T22:39:56.773Z,10.57
2023-05-20T22:42:24.209Z,11.05
2023-05-20T22:44:51.630Z,10.10
2023-05-20T22:47:19.041Z,10.88
2023-05-20T22:49:46.483Z,11.80
2023-05-20T22:52:13.820Z,11.05
2023-05-20T22:54:41.395Z,11.45
2023-05-20T22:57:08.892Z,11.82
2023-05-20T22:59:36.837Z,11.80
2023-05-20T23:02:04.676Z,11.73
2023-05-20T23:04:32.626Z,12.05
2023-05-20T23:07:00.310Z,11.27
2023-05-20T23:09:27.690Z,12.38
2023-05-20T23:11:55.070Z,11.50
2023-05-20T23:14:22.549Z,11.25
2023-05-20T23:16:49.968Z,11.60
2023-05-20T23:19:20.288Z,11.15
2023-05-20T23:21:47.650Z,11.95
2023-05-20T23:24:17.036Z,12.68
2023-05-20T23:26:44.647Z,12.10
2023-05-20T23:29:12.190Z,12.88
2023-05-20T23:31:40.089Z,12.88
2023-05-20T23:34:07.568Z,12.30
2023-05-20T23:36:35.439Z,13.18
2023-05-20T23:39:03.543Z,11.82
2023-05-20T23:41:30.959Z,13.77
2023-05-20T23:43:58.374Z,12.68
2023-05-20T23:46:25.984Z,12.80
2023-05-20T23:48:53.895Z,13.25
2023-05-20T23:51:21.354Z,13.30
2023-05-20T23:53:48.790Z,14.00
2023-05-20T23:56:16.360Z,14.18
2023-05-20T23:58:43.800Z,14.27
